Delta Virtual Airport Information Service

Hamilton John C. Munro International Airport

ICAO: CYHM Country: Canada
Latitude: 43.1736 Longitude: -79.935
Latest Arrival : GTI2012 (KCVG-CYHM) Latest Departure : GTI2001 (A) (CYHM-KCVG)


WX CaptureLIVE
Data provided by noaa.gov | Fetched at 10:28:54

METAR : CYHM 151500Z 32012G18KT 15SM FEW090 20/08 A2990 RMK AC1 SLP125 DENSITY ALT 1600FT

TAF : CYHM 151138Z 1512/1612 31010KT P6SM BKN120 FM151300 33012G22KT P6SM FEW050 FM160100 36010KT P6SM SKC RMK NXT FCST BY 151800Z


Runway Data for CYHM
Data provided by openaviationdata.com

Runway ID Mag Var Hdg Length Elevation Surface ILS Freq ILS Id ILS Slope
6 -10 58° 6005 ft 780 ft Asphalt -- -- --
12 -10 117° 9993 ft 780 ft Asphalt 110.9 IAB 3
24 -10 238° 6005 ft 780 ft Asphalt -- -- --
30 -10 297° 9993 ft 780 ft Asphalt -- -- --

Hamilton John C. Munro International Airport, Canada
Use only for reference purposes



Not for navigational purposes.